Time;durP1;ratioP1;P1;durP2;ratioP2;P2;SDS_P1;SDS_P2;PMS_P1;PMS_P2;Temp;Humidity;BMP_temperature;BMP_pressure;BME280_temperature;BME280_humidity;BME280_pressure;Samples;Min_cycle;Max_cycle;Signal;HPM_P1;HPM_P2
2023/07/17 00:00:28;;;;;;;313.33;296.90;;;15.80;89.00;;;;;;4987990;28;20328;-68
2023/07/17 00:02:56;;;;;;;297.43;281.93;;;15.90;89.10;;;;;;4989395;28;20202;-66
2023/07/17 00:05:24;;;;;;;276.97;262.07;;;16.10;88.80;;;;;;4986151;28;20196;-69
2023/07/17 00:07:51;;;;;;;263.17;249.00;;;16.00;88.30;;;;;;4991678;28;20212;-69
2023/07/17 00:10:18;;;;;;;261.60;247.23;;;16.00;88.40;;;;;;4989588;28;20272;-65
2023/07/17 00:12:45;;;;;;;248.93;234.83;;;16.00;88.20;;;;;;4988460;28;20206;-65
2023/07/17 00:15:13;;;;;;;223.53;210.63;;;16.20;88.20;;;;;;4991650;28;20271;-65
2023/07/17 00:17:41;;;;;;;207.57;195.63;;;16.30;88.10;;;;;;4973390;28;20264;-67
2023/07/17 00:20:12;;;;;;;195.33;183.60;;;16.30;87.60;;;;;;4992149;28;20295;-69
2023/07/17 00:22:40;;;;;;;171.90;161.23;;;16.60;87.40;;;;;;4991769;28;20191;-65
2023/07/17 00:25:09;;;;;;;141.90;132.50;;;16.60;86.90;;;;;;4991776;28;20239;-65
2023/07/17 00:27:36;;;;;;;133.03;124.23;;;16.80;86.80;;;;;;4991997;28;20180;-65
2023/07/17 00:30:04;;;;;;;105.07;97.77;;;17.00;86.20;;;;;;4992126;28;20762;-69
2023/07/17 00:32:32;;;;;;;77.97;72.30;;;17.10;85.40;;;;;;4973988;28;20589;-70
2023/07/17 00:34:59;;;;;;;67.63;62.43;;;17.00;84.20;;;;;;4983514;28;20557;-70
2023/07/17 00:37:26;;;;;;;55.57;50.97;;;17.00;84.30;;;;;;4987157;28;20194;-66
2023/07/17 00:39:54;;;;;;;54.03;49.27;;;17.20;83.80;;;;;;4995182;28;20649;-64
2023/07/17 00:42:21;;;;;;;42.10;38.67;;;17.30;83.40;;;;;;4981340;28;20211;-64
2023/07/17 00:44:48;;;;;;;33.03;30.33;;;17.40;82.40;;;;;;4998680;28;20189;-63
2023/07/17 00:47:16;;;;;;;26.73;23.63;;;17.60;82.10;;;;;;4990239;28;20580;-65
2023/07/17 00:49:43;;;;;;;22.53;20.33;;;17.60;81.50;;;;;;5006174;28;20264;-63
2023/07/17 00:52:11;;;;;;;20.93;17.87;;;17.50;80.50;;;;;;4996728;28;20201;-63
2023/07/17 00:54:41;;;;;;;19.10;16.27;;;17.60;80.10;;;;;;4981874;28;20182;-65
2023/07/17 00:57:10;;;;;;;23.03;14.40;;;17.60;79.90;;;;;;4994659;28;21711;-66
2023/07/17 00:59:37;;;;;;;16.73;13.40;;;17.50;79.90;;;;;;4996365;28;20181;-65
2023/07/17 01:02:06;;;;;;;21.73;14.30;;;17.50;80.00;;;;;;4994925;28;20217;-67
2023/07/17 01:04:33;;;;;;;14.23;12.03;;;17.70;80.30;;;;;;4995093;28;20254;-65
2023/07/17 01:07:01;;;;;;;17.40;11.03;;;17.90;79.20;;;;;;4995160;28;20303;-65
2023/07/17 01:09:28;;;;;;;15.87;10.03;;;17.90;78.50;;;;;;4984639;28;20195;-64
2023/07/17 01:11:56;;;;;;;15.33;10.47;;;17.70;77.70;;;;;;4995453;28;20186;-65
2023/07/17 01:14:23;;;;;;;15.67;9.53;;;17.50;78.70;;;;;;4995753;28;20228;-65
2023/07/17 01:16:51;;;;;;;17.87;9.17;;;17.50;79.30;;;;;;4994540;28;20200;-64
2023/07/17 01:19:18;;;;;;;14.07;8.93;;;17.40;78.90;;;;;;4994754;28;20197;-65
2023/07/17 01:21:59;;;;;;;13.97;9.20;;;17.30;78.80;;;;;;4986991;28;20696;-67
2023/07/17 01:24:26;;;;;;;16.73;9.23;;;17.30;79.40;;;;;;4978435;28;20192;-66
2023/07/17 01:26:54;;;;;;;18.93;8.87;;;17.30;79.70;;;;;;4990319;28;20265;-73
2023/07/17 01:29:22;;;;;;;12.90;7.30;;;17.20;79.50;;;;;;4996480;28;20537;-70
2023/07/17 01:31:49;;;;;;;19.30;8.17;;;17.40;79.50;;;;;;4994967;28;20305;-74
2023/07/17 01:34:16;;;;;;;15.70;8.10;;;17.30;78.40;;;;;;4993925;28;20275;-73
2023/07/17 01:36:44;;;;;;;16.37;8.03;;;17.30;79.50;;;;;;4995333;28;20181;-73
2023/07/17 01:39:11;;;;;;;11.17;6.60;;;17.60;79.40;;;;;;4995285;28;20182;-65
2023/07/17 01:41:38;;;;;;;13.40;6.10;;;17.50;78.30;;;;;;4989447;28;20190;-67
2023/07/17 01:44:06;;;;;;;12.27;5.97;;;17.60;78.00;;;;;;4994116;28;21217;-65
2023/07/17 01:46:33;;;;;;;13.37;6.00;;;17.70;77.90;;;;;;4995907;28;20544;-66
2023/07/17 01:49:00;;;;;;;19.30;6.50;;;17.90;77.70;;;;;;4994671;28;20265;-65
2023/07/17 01:51:28;;;;;;;13.77;6.00;;;17.80;77.20;;;;;;4995253;28;20185;-67
2023/07/17 01:53:55;;;;;;;13.83;5.53;;;17.90;77.00;;;;;;4994702;28;20627;-66
2023/07/17 01:56:23;;;;;;;14.57;6.40;;;18.20;76.60;;;;;;4994004;28;20189;-66
2023/07/17 01:58:50;;;;;;;15.37;5.70;;;18.20;76.60;;;;;;4993737;28;20210;-66
2023/07/17 02:01:17;;;;;;;12.97;5.47;;;18.40;76.00;;;;;;4993883;28;20236;-66
2023/07/17 02:03:44;;;;;;;11.93;5.90;;;18.60;74.80;;;;;;4995603;28;20577;-66
2023/07/17 02:06:12;;;;;;;16.93;6.43;;;18.50;75.40;;;;;;4995133;28;20188;-65
2023/07/17 02:08:39;;;;;;;11.93;5.83;;;18.30;76.30;;;;;;4985718;28;20241;-65
2023/07/17 02:11:06;;;;;;;14.03;5.90;;;18.30;74.90;;;;;;4989203;28;20205;-65
2023/07/17 02:13:34;;;;;;;18.77;5.90;;;18.30;75.60;;;;;;4987545;28;20205;-65
2023/07/17 02:16:01;;;;;;;10.43;5.70;;;18.20;76.10;;;;;;4993251;28;20190;-65
2023/07/17 02:18:30;;;;;;;20.57;5.70;;;18.20;75.90;;;;;;4992376;28;20194;-65
2023/07/17 02:20:58;;;;;;;15.67;5.77;;;18.00;75.90;;;;;;4992705;28;20180;-65
2023/07/17 02:23:26;;;;;;;12.13;4.87;;;18.00;76.20;;;;;;4993788;28;20582;-65
2023/07/17 02:25:53;;;;;;;18.43;5.80;;;18.10;76.30;;;;;;4993469;28;20530;-65
2023/07/17 02:28:21;;;;;;;14.60;5.10;;;18.20;76.30;;;;;;4983049;28;20192;-64
2023/07/17 02:30:48;;;;;;;12.57;4.73;;;18.20;75.50;;;;;;4993519;28;20225;-68
2023/07/17 02:33:16;;;;;;;19.70;5.37;;;18.00;75.70;;;;;;4988687;28;20210;-65
2023/07/17 02:35:43;;;;;;;15.47;5.20;;;18.00;75.90;;;;;;4989767;28;20189;-65
2023/07/17 02:38:10;;;;;;;10.23;4.20;;;18.10;76.10;;;;;;4994998;28;20186;-65
2023/07/17 02:40:38;;;;;;;12.87;5.00;;;18.00;75.90;;;;;;4992037;28;20213;-66
2023/07/17 02:43:07;;;;;;;11.83;5.53;;;18.10;76.00;;;;;;4989339;28;20182;-66
2023/07/17 02:45:34;;;;;;;13.63;5.37;;;18.10;76.30;;;;;;4992755;28;20189;-64
2023/07/17 02:48:03;;;;;;;11.87;5.30;;;18.20;75.80;;;;;;4990525;28;20209;-64
2023/07/17 02:50:31;;;;;;;12.47;5.03;;;18.00;76.50;;;;;;4989883;28;20196;-65
2023/07/17 02:52:58;;;;;;;10.63;5.20;;;17.90;76.90;;;;;;4984768;28;20248;-64
2023/07/17 02:55:25;;;;;;;12.50;5.37;;;17.80;77.10;;;;;;4994718;28;20187;-65
2023/07/17 02:57:53;;;;;;;12.50;5.03;;;17.70;77.20;;;;;;4989889;28;20212;-64
2023/07/17 03:00:20;;;;;;;12.40;4.70;;;17.70;77.90;;;;;;4982291;28;20647;-65
2023/07/17 03:02:48;;;;;;;14.03;6.07;;;17.70;78.20;;;;;;4985743;28;20198;-65
2023/07/17 03:05:16;;;;;;;14.93;6.00;;;17.50;78.90;;;;;;4989694;28;20671;-65
2023/07/17 03:07:46;;;;;;;14.50;6.47;;;17.60;79.20;;;;;;4994091;28;20666;-66
2023/07/17 03:10:14;;;;;;;11.40;5.77;;;17.50;78.60;;;;;;4988605;28;20719;-66
2023/07/17 03:12:41;;;;;;;17.20;5.93;;;17.70;78.70;;;;;;4981253;28;20214;-65
2023/07/17 03:15:10;;;;;;;14.93;5.70;;;17.70;77.70;;;;;;4990861;28;20193;-66
2023/07/17 03:17:38;;;;;;;10.07;4.50;;;18.30;78.30;;;;;;4994505;28;20189;-68
2023/07/17 03:20:08;;;;;;;10.57;4.27;;;18.40;75.50;;;;;;4994351;28;20193;-66
2023/07/17 03:22:39;;;;;;;11.90;4.20;;;18.30;75.10;;;;;;4994108;28;20201;-66
2023/07/17 03:25:08;;;;;;;9.30;3.50;;;18.30;74.60;;;;;;4994699;28;20170;-66
2023/07/17 03:27:35;;;;;;;11.33;3.53;;;18.10;74.50;;;;;;4992102;28;20196;-65
2023/07/17 03:30:02;;;;;;;9.63;3.03;;;18.00;75.10;;;;;;4978603;28;20248;-67
2023/07/17 03:32:34;;;;;;;12.30;3.73;;;18.10;74.80;;;;;;4990703;28;20209;-65
2023/07/17 03:35:02;;;;;;;15.60;3.13;;;17.90;74.40;;;;;;4990704;28;20530;-65
2023/07/17 03:37:30;;;;;;;11.13;3.23;;;17.90;75.30;;;;;;4993448;28;20178;-66
2023/07/17 03:39:58;;;;;;;14.50;3.33;;;17.90;75.20;;;;;;4993986;28;20635;-67
2023/07/17 03:42:25;;;;;;;10.00;3.63;;;17.80;75.00;;;;;;4988604;28;20190;-67
2023/07/17 03:44:53;;;;;;;7.90;2.83;;;17.90;74.90;;;;;;4973727;28;20181;-66
2023/07/17 03:47:20;;;;;;;11.40;3.00;;;18.00;75.00;;;;;;4974326;28;20179;-67
2023/07/17 03:49:47;;;;;;;10.27;2.73;;;18.50;73.90;;;;;;4991136;28;20586;-64
2023/07/17 03:52:15;;;;;;;13.00;2.77;;;19.30;71.20;;;;;;4993136;28;20186;-64
2023/07/17 03:54:42;;;;;;;9.30;3.10;;;19.50;71.10;;;;;;4971771;28;20182;-65
2023/07/17 03:57:10;;;;;;;16.00;3.10;;;19.70;69.40;;;;;;4991711;28;20189;-69
2023/07/17 03:59:55;;;;;;;9.43;3.00;;;19.50;70.60;;;;;;4991450;28;20190;-65
2023/07/17 04:02:23;;;;;;;15.73;3.40;;;19.20;70.50;;;;;;4983691;28;20178;-67
2023/07/17 04:04:50;;;;;;;13.43;2.80;;;19.00;70.80;;;;;;4991636;28;20213;-65
2023/07/17 04:07:18;;;;;;;8.93;2.40;;;18.90;72.00;;;;;;4989169;28;20265;-70
2023/07/17 04:09:45;;;;;;;9.27;3.17;;;18.70;72.20;;;;;;4986959;28;20178;-66
2023/07/17 04:12:12;;;;;;;9.40;2.57;;;18.50;72.80;;;;;;4991028;28;20175;-69
2023/07/17 04:14:40;;;;;;;9.33;2.93;;;18.30;74.40;;;;;;4994538;28;20268;-68
2023/07/17 04:17:07;;;;;;;10.33;2.83;;;18.20;74.60;;;;;;4991325;28;20687;-72
2023/07/17 04:19:34;;;;;;;12.77;3.60;;;18.10;74.70;;;;;;4989178;28;20221;-67
2023/07/17 04:22:02;;;;;;;11.13;3.47;;;18.20;75.20;;;;;;4981628;28;20344;-66
2023/07/17 04:24:29;;;;;;;12.03;4.07;;;18.20;75.00;;;;;;4989449;28;20559;-66
2023/07/17 04:26:56;;;;;;;8.57;3.10;;;18.30;74.60;;;;;;4970858;28;20186;-65
2023/07/17 04:29:26;;;;;;;10.60;2.97;;;18.40;75.10;;;;;;4984734;28;20607;-65
2023/07/17 04:31:53;;;;;;;12.80;3.43;;;18.50;74.70;;;;;;4997908;28;20232;-65
2023/07/17 04:34:20;;;;;;;8.80;3.20;;;18.60;73.70;;;;;;4992253;28;20222;-66
2023/07/17 04:36:48;;;;;;;12.40;3.93;;;18.40;74.00;;;;;;4992215;28;20216;-65
2023/07/17 04:39:16;;;;;;;9.80;2.93;;;18.20;75.10;;;;;;4986165;28;20201;-65
2023/07/17 04:41:44;;;;;;;8.83;3.00;;;18.20;75.00;;;;;;4988671;28;20273;-65
2023/07/17 04:44:11;;;;;;;7.83;2.60;;;18.20;75.40;;;;;;4985892;28;20190;-65
2023/07/17 04:46:38;;;;;;;11.33;3.20;;;18.20;75.20;;;;;;4969365;28;20593;-65
2023/07/17 04:49:06;;;;;;;10.33;2.97;;;18.30;75.20;;;;;;4990788;28;20208;-64
2023/07/17 04:51:33;;;;;;;10.33;2.53;;;18.90;73.20;;;;;;4989206;28;20266;-65
2023/07/17 04:54:00;;;;;;;6.10;1.83;;;19.80;71.90;;;;;;4991711;28;20257;-65
2023/07/17 04:56:28;;;;;;;11.90;2.50;;;20.60;68.10;;;;;;4992922;28;20174;-65
2023/07/17 04:58:55;;;;;;;7.43;2.13;;;21.00;65.40;;;;;;4992592;28;20185;-67
2023/07/17 05:01:22;;;;;;;6.87;2.33;;;21.40;63.30;;;;;;4987372;28;20174;-68
2023/07/17 05:03:50;;;;;;;10.00;2.00;;;21.70;61.80;;;;;;4989017;28;20186;-68
2023/07/17 05:06:17;;;;;;;8.03;2.70;;;21.00;62.90;;;;;;4992434;28;20178;-66
2023/07/17 05:08:44;;;;;;;10.93;2.23;;;21.30;61.90;;;;;;4991648;28;20178;-68
2023/07/17 05:11:11;;;;;;;14.47;2.57;;;21.50;61.40;;;;;;4991792;28;20637;-67
2023/07/17 05:13:39;;;;;;;6.73;2.00;;;21.50;60.80;;;;;;4986614;28;20218;-70
2023/07/17 05:16:06;;;;;;;12.73;2.33;;;21.30;61.20;;;;;;4989713;28;20659;-66
2023/07/17 05:18:34;;;;;;;8.60;1.90;;;21.30;61.70;;;;;;4988068;28;20191;-68
2023/07/17 05:21:01;;;;;;;8.20;2.13;;;21.10;62.70;;;;;;4992123;28;20654;-66
2023/07/17 05:23:30;;;;;;;7.90;2.17;;;21.40;61.40;;;;;;4984027;28;20221;-66
2023/07/17 05:26:00;;;;;;;9.47;2.07;;;21.20;61.00;;;;;;4977603;28;20186;-68
2023/07/17 05:28:28;;;;;;;8.33;1.80;;;20.90;62.50;;;;;;4978633;28;20641;-67
2023/07/17 05:30:57;;;;;;;11.30;2.00;;;21.10;61.90;;;;;;4989017;28;20313;-68
2023/07/17 05:33:25;;;;;;;4.07;1.53;;;21.30;61.30;;;;;;4990866;28;20272;-69
2023/07/17 05:35:53;;;;;;;8.77;2.23;;;21.70;60.30;;;;;;4991317;28;20548;-69
2023/07/17 05:38:20;;;;;;;6.40;1.97;;;21.40;61.40;;;;;;4992332;28;20186;-69
2023/07/17 05:40:47;;;;;;;6.27;1.70;;;21.50;61.70;;;;;;4995735;28;20193;-68
2023/07/17 05:43:15;;;;;;;7.80;1.70;;;21.50;60.60;;;;;;4994651;28;20197;-67
2023/07/17 05:45:42;;;;;;;7.87;2.43;;;21.60;60.70;;;;;;4996298;28;20178;-68
2023/07/17 05:48:09;;;;;;;10.83;2.37;;;21.40;61.30;;;;;;4990414;28;20546;-71
2023/07/17 05:50:37;;;;;;;8.50;2.23;;;21.40;62.20;;;;;;4989501;28;20194;-67
2023/07/17 05:53:04;;;;;;;7.23;2.00;;;21.50;62.40;;;;;;4984913;28;20664;-65
2023/07/17 05:55:32;;;;;;;7.20;1.77;;;21.50;60.90;;;;;;4987107;28;20215;-65
2023/07/17 05:57:59;;;;;;;8.67;1.90;;;21.20;62.30;;;;;;4984451;28;20637;-65
2023/07/17 06:00:26;;;;;;;8.10;2.27;;;21.30;61.90;;;;;;4990242;28;20585;-65
2023/07/17 06:02:54;;;;;;;8.83;2.20;;;21.80;61.10;;;;;;4989077;28;20194;-65
2023/07/17 06:05:21;;;;;;;9.20;2.10;;;21.30;62.80;;;;;;4985965;28;20182;-65
2023/07/17 06:07:49;;;;;;;10.87;2.47;;;21.20;63.40;;;;;;4987856;28;20581;-65
2023/07/17 06:10:16;;;;;;;11.20;2.80;;;21.30;62.40;;;;;;4989110;28;20194;-65
2023/07/17 06:12:44;;;;;;;11.17;2.27;;;21.00;62.60;;;;;;4993372;28;20206;-64
2023/07/17 06:15:14;;;;;;;12.47;2.07;;;20.80;63.40;;;;;;4987260;28;20189;-64
2023/07/17 06:17:41;;;;;;;11.03;2.07;;;19.90;66.60;;;;;;4980955;28;20281;-65
2023/07/17 06:20:09;;;;;;;15.33;2.47;;;19.40;68.30;;;;;;4987733;28;20194;-66
2023/07/17 06:22:37;;;;;;;15.23;2.80;;;19.10;70.20;;;;;;4987866;28;20190;-64
2023/07/17 06:25:05;;;;;;;10.07;2.20;;;18.90;70.60;;;;;;4989829;28;20236;-65
2023/07/17 06:27:32;;;;;;;7.17;2.70;;;18.80;71.60;;;;;;4985562;28;20190;-65
2023/07/17 06:30:00;;;;;;;8.17;2.37;;;18.50;72.50;;;;;;4988163;28;20305;-65
2023/07/17 06:32:28;;;;;;;7.17;2.60;;;18.30;73.00;;;;;;4990665;28;20197;-65
2023/07/17 06:34:55;;;;;;;13.73;2.37;;;18.10;74.40;;;;;;4990303;28;20213;-72
2023/07/17 06:37:22;;;;;;;14.40;2.37;;;17.90;74.80;;;;;;4986379;28;20660;-67
2023/07/17 06:39:50;;;;;;;12.17;2.80;;;17.80;75.20;;;;;;4987903;28;20649;-67
2023/07/17 06:42:17;;;;;;;8.60;2.17;;;17.70;75.60;;;;;;4987291;28;20188;-66
2023/07/17 06:44:44;;;;;;;12.50;2.17;;;17.60;76.00;;;;;;4985354;28;20185;-69
2023/07/17 06:47:12;;;;;;;8.20;2.30;;;17.50;76.40;;;;;;4986202;28;20660;-67
2023/07/17 06:49:41;;;;;;;9.10;2.50;;;17.40;76.70;;;;;;4985630;28;20186;-66
2023/07/17 06:52:08;;;;;;;10.53;2.30;;;17.30;77.20;;;;;;4991311;28;20684;-67
2023/07/17 06:54:36;;;;;;;11.83;2.57;;;17.20;77.50;;;;;;4967552;28;20249;-67
2023/07/17 06:57:03;;;;;;;13.03;2.80;;;17.20;77.80;;;;;;4990761;28;20193;-67
2023/07/17 06:59:31;;;;;;;11.57;2.70;;;17.10;78.40;;;;;;4988049;28;20212;-65
2023/07/17 07:01:58;;;;;;;13.43;2.63;;;17.00;78.30;;;;;;4989735;28;20201;-67
2023/07/17 07:04:25;;;;;;;11.77;2.47;;;16.90;78.80;;;;;;4991101;28;20643;-65
2023/07/17 07:06:53;;;;;;;11.37;2.70;;;16.80;79.10;;;;;;4986457;28;20228;-68
2023/07/17 07:09:20;;;;;;;8.60;2.43;;;16.80;79.80;;;;;;4988103;28;20307;-66
2023/07/17 07:11:48;;;;;;;12.90;2.83;;;16.70;79.90;;;;;;4987521;28;20184;-71
2023/07/17 07:14:15;;;;;;;14.23;3.40;;;16.70;80.30;;;;;;4990860;28;20223;-67
2023/07/17 07:16:42;;;;;;;20.07;3.93;;;16.60;80.70;;;;;;4988356;28;20182;-68
2023/07/17 07:19:10;;;;;;;15.23;2.63;;;16.50;81.10;;;;;;4988598;28;20567;-67
2023/07/17 07:21:37;;;;;;;13.63;3.40;;;16.50;81.30;;;;;;4982944;28;20180;-68
2023/07/17 07:24:04;;;;;;;15.87;3.17;;;16.40;81.70;;;;;;4986659;28;20187;-66
2023/07/17 07:26:33;;;;;;;14.80;3.10;;;16.30;81.80;;;;;;4986780;28;20185;-65
2023/07/17 07:29:00;;;;;;;16.27;2.97;;;16.30;82.00;;;;;;4989294;28;20183;-65
2023/07/17 07:31:27;;;;;;;18.60;3.73;;;16.30;82.50;;;;;;4985954;28;20785;-65
2023/07/17 07:33:55;;;;;;;9.67;3.10;;;16.20;82.50;;;;;;4992556;28;20649;-65
2023/07/17 07:36:22;;;;;;;13.10;3.50;;;16.20;82.80;;;;;;4985660;28;20260;-65
2023/07/17 07:38:50;;;;;;;14.90;4.43;;;16.10;82.90;;;;;;4987144;28;20196;-64
2023/07/17 07:41:17;;;;;;;14.70;4.10;;;16.10;83.00;;;;;;4981510;28;20595;-67
2023/07/17 07:43:45;;;;;;;12.80;4.40;;;16.00;83.20;;;;;;4988305;28;20209;-66
2023/07/17 07:46:12;;;;;;;11.63;4.20;;;16.00;83.00;;;;;;4990946;28;20187;-64
2023/07/17 07:48:40;;;;;;;12.73;4.40;;;16.00;83.40;;;;;;4988232;28;20194;-64
2023/07/17 07:51:07;;;;;;;15.83;4.90;;;16.00;83.40;;;;;;4982134;28;20193;-65
2023/07/17 07:53:34;;;;;;;14.27;5.07;;;16.00;83.40;;;;;;4988833;28;20219;-67
2023/07/17 07:56:02;;;;;;;12.73;5.67;;;16.00;83.60;;;;;;4985908;28;20189;-65
2023/07/17 07:58:29;;;;;;;13.50;4.90;;;15.90;83.50;;;;;;4986401;28;20187;-66
2023/07/17 08:00:56;;;;;;;17.83;6.50;;;15.90;83.80;;;;;;4986488;28;20187;-67
2023/07/17 08:03:24;;;;;;;24.27;12.57;;;15.90;84.00;;;;;;4996959;28;20187;-73
2023/07/17 08:05:52;;;;;;;21.90;10.27;;;15.80;83.90;;;;;;4994821;28;20190;-65
2023/07/17 08:08:19;;;;;;;18.73;10.13;;;15.70;84.00;;;;;;4990327;28;20536;-65
2023/07/17 08:10:46;;;;;;;16.93;10.00;;;15.70;84.20;;;;;;4990996;28;20203;-66
2023/07/17 08:13:13;;;;;;;19.67;10.47;;;15.70;84.40;;;;;;4992061;28;20197;-67
2023/07/17 08:15:41;;;;;;;17.23;8.50;;;15.70;84.70;;;;;;4990684;28;20419;-67
2023/07/17 08:18:08;;;;;;;17.50;8.00;;;15.70;84.70;;;;;;4987071;28;20210;-71
2023/07/17 08:20:35;;;;;;;15.33;8.63;;;15.60;85.00;;;;;;4988945;28;20197;-73
2023/07/17 08:23:03;;;;;;;15.83;8.20;;;15.60;85.00;;;;;;4987620;28;20637;-70
2023/07/17 08:25:30;;;;;;;15.00;8.70;;;15.60;85.30;;;;;;4991952;28;20191;-70
2023/07/17 08:27:58;;;;;;;19.73;8.83;;;15.60;85.20;;;;;;4992639;28;20269;-66
2023/07/17 08:30:25;;;;;;;12.13;8.47;;;15.60;85.40;;;;;;4993016;28;20257;-70
2023/07/17 08:32:52;;;;;;;13.07;8.37;;;15.50;85.30;;;;;;4990518;28;20227;-67
2023/07/17 08:35:20;;;;;;;12.07;8.87;;;15.50;85.40;;;;;;4992164;28;20200;-76
2023/07/17 08:37:47;;;;;;;16.73;10.03;;;15.40;85.60;;;;;;4992587;28;20190;-69
2023/07/17 08:40:14;;;;;;;15.47;9.87;;;15.30;85.80;;;;;;4990549;28;20198;-67
2023/07/17 08:42:45;;;;;;;16.73;9.60;;;15.30;85.90;;;;;;4991823;28;20639;-70
2023/07/17 08:45:14;;;;;;;14.13;10.37;;;15.30;86.00;;;;;;4993002;28;20184;-71
2023/07/17 08:47:42;;;;;;;19.30;11.97;;;15.20;86.00;;;;;;4992644;28;20666;-72
2023/07/17 08:50:10;;;;;;;16.60;11.47;;;15.20;86.30;;;;;;4991958;28;20602;-71
2023/07/17 08:52:38;;;;;;;19.50;10.33;;;15.10;86.40;;;;;;4992553;28;20182;-66
2023/07/17 08:55:06;;;;;;;20.27;12.33;;;15.10;86.70;;;;;;4992606;28;20648;-68
2023/07/17 08:57:34;;;;;;;16.53;12.03;;;15.10;86.90;;;;;;4992760;28;20182;-65
2023/07/17 09:00:04;;;;;;;23.13;13.77;;;15.10;86.80;;;;;;4992994;28;20200;-74
2023/07/17 09:02:32;;;;;;;21.13;14.07;;;15.00;87.10;;;;;;4987259;28;20210;-74
2023/07/17 09:05:00;;;;;;;22.87;14.27;;;15.00;87.10;;;;;;4991918;28;20193;-66
2023/07/17 09:07:27;;;;;;;17.93;13.13;;;14.90;87.20;;;;;;4987757;28;20215;-70
2023/07/17 09:10:17;;;;;;;18.13;13.40;;;14.90;87.20;;;;;;4991480;28;20186;-66
2023/07/17 09:12:57;;;;;;;21.10;13.90;;;14.80;87.40;;;;;;4980087;28;20289;-74
2023/07/17 09:15:26;;;;;;;22.73;13.37;;;14.80;87.60;;;;;;4994484;28;20192;-70
2023/07/17 09:17:54;;;;;;;19.10;13.80;;;14.80;87.60;;;;;;4994656;28;20217;-70
2023/07/17 09:20:21;;;;;;;22.80;13.17;;;14.80;87.90;;;;;;4995166;28;20197;-75
2023/07/17 09:22:50;;;;;;;23.47;13.70;;;14.80;87.70;;;;;;4995262;28;20220;-67
2023/07/17 09:25:17;;;;;;;18.80;15.30;;;14.70;87.90;;;;;;4994256;28;20869;-69
2023/07/17 09:27:49;;;;;;;26.70;15.73;;;14.70;88.00;;;;;;4994769;28;20541;-66
2023/07/17 09:30:22;;;;;;;24.73;17.60;;;14.70;88.30;;;;;;5000734;28;20230;-69
2023/07/17 09:32:51;;;;;;;23.30;17.97;;;14.80;88.40;;;;;;4993381;28;20210;-67
2023/07/17 09:35:22;;;;;;;25.33;18.93;;;14.70;88.40;;;;;;4995654;28;20365;-64
2023/07/17 09:37:50;;;;;;;22.17;18.53;;;14.70;88.60;;;;;;4991897;28;20218;-68
2023/07/17 09:40:18;;;;;;;23.33;18.50;;;14.80;88.80;;;;;;4995476;28;20225;-67
2023/07/17 09:42:52;;;;;;;27.47;19.10;;;14.70;88.60;;;;;;4993598;28;20278;-71
2023/07/17 09:45:20;;;;;;;24.80;21.60;;;14.70;88.70;;;;;;4987862;28;20276;-70
2023/07/17 09:47:51;;;;;;;25.43;22.93;;;14.70;88.80;;;;;;4992817;28;20191;-67
2023/07/17 09:50:21;;;;;;;27.23;24.53;;;14.70;89.00;;;;;;4995077;28;20565;-66
2023/07/17 09:52:50;;;;;;;29.13;26.00;;;14.70;89.00;;;;;;4995233;28;20238;-66
2023/07/17 09:55:20;;;;;;;29.73;25.77;;;14.80;89.10;;;;;;4993690;28;20192;-66
2023/07/17 09:57:49;;;;;;;28.87;25.77;;;14.80;89.00;;;;;;4987363;28;20268;-65
2023/07/17 10:00:19;;;;;;;33.53;26.47;;;14.80;89.00;;;;;;4993799;28;20584;-65
2023/07/17 10:03:10;;;;;;;29.70;26.70;;;14.70;88.90;;;;;;4988057;28;20188;-72
2023/07/17 10:05:41;;;;;;;29.83;26.93;;;14.60;88.80;;;;;;4976126;28;20247;-68
2023/07/17 10:08:12;;;;;;;30.70;27.43;;;14.50;88.80;;;;;;4994148;28;20656;-64
2023/07/17 10:10:41;;;;;;;32.40;29.37;;;14.50;89.00;;;;;;4988313;28;20196;-65
2023/07/17 10:13:10;;;;;;;34.63;31.20;;;14.40;89.00;;;;;;4990467;28;20686;-64
2023/07/17 10:15:38;;;;;;;39.30;35.20;;;14.40;89.20;;;;;;4994307;28;20264;-65
2023/07/17 10:18:11;;;;;;;40.63;36.50;;;14.30;89.30;;;;;;4993045;28;20583;-66
2023/07/17 10:20:39;;;;;;;43.90;39.03;;;14.30;89.30;;;;;;4994656;28;20188;-66
2023/07/17 10:23:26;;;;;;;42.23;37.77;;;14.30;89.40;;;;;;4993707;28;20189;-66
2023/07/17 10:26:10;;;;;;;40.47;36.87;;;14.30;89.50;;;;;;4987791;28;20644;-67
2023/07/17 10:28:38;;;;;;;38.97;35.63;;;14.40;89.60;;;;;;4993350;28;20644;-66
2023/07/17 10:31:25;;;;;;;37.80;34.70;;;14.40;89.40;;;;;;4993741;28;20229;-67
2023/07/17 10:34:04;;;;;;;39.07;35.37;;;14.30;89.60;;;;;;4989828;28;20218;-66
2023/07/17 10:36:50;;;;;;;42.50;38.80;;;14.30;89.60;;;;;;4987976;28;20269;-66
2023/07/17 10:39:19;;;;;;;43.40;39.80;;;14.30;89.40;;;;;;4993603;28;20174;-68
2023/07/17 10:41:50;;;;;;;44.03;40.30;;;14.40;89.50;;;;;;4993658;28;20668;-67
2023/07/17 10:44:22;;;;;;;43.63;40.00;;;14.30;89.30;;;;;;4992037;28;20181;-66
2023/07/17 10:46:49;;;;;;;46.67;42.73;;;14.30;89.30;;;;;;4991567;28;20186;-66
2023/07/17 10:49:20;;;;;;;46.30;42.83;;;14.30;89.40;;;;;;4992252;28;20182;-66
2023/07/17 10:51:50;;;;;;;46.20;42.13;;;14.30;89.30;;;;;;4994341;28;20174;-67
2023/07/17 10:54:19;;;;;;;46.80;42.40;;;14.30;89.40;;;;;;4993246;28;20778;-65
2023/07/17 10:56:48;;;;;;;47.27;43.77;;;14.30;89.50;;;;;;4992458;28;20707;-65
2023/07/17 10:59:18;;;;;;;46.40;42.47;;;14.30;89.40;;;;;;4993931;28;20703;-67
2023/07/17 11:01:46;;;;;;;48.23;44.53;;;14.30;89.60;;;;;;4991018;28;20807;-67
2023/07/17 11:04:13;;;;;;;47.00;43.53;;;14.30;89.60;;;;;;4993265;28;20178;-65
2023/07/17 11:06:41;;;;;;;50.07;46.50;;;14.30;89.70;;;;;;4994274;28;20189;-65
2023/07/17 11:09:08;;;;;;;53.10;48.67;;;14.30;89.60;;;;;;4991895;28;20178;-66
2023/07/17 11:11:35;;;;;;;53.13;48.37;;;14.30;89.70;;;;;;4993068;28;20656;-65
2023/07/17 11:14:04;;;;;;;51.93;48.03;;;14.30;89.70;;;;;;4993720;28;20210;-66
2023/07/17 11:16:33;;;;;;;51.10;46.67;;;14.30;89.50;;;;;;4992618;28;20177;-67
2023/07/17 11:19:03;;;;;;;47.43;43.87;;;14.30;89.40;;;;;;4993662;28;20178;-65
2023/07/17 11:21:31;;;;;;;50.50;47.00;;;14.20;89.50;;;;;;4993571;28;20229;-65
2023/07/17 11:24:01;;;;;;;50.00;45.87;;;14.10;89.40;;;;;;4989691;28;20182;-64
2023/07/17 11:26:33;;;;;;;49.50;45.80;;;14.00;89.30;;;;;;4992688;28;20216;-65
2023/07/17 11:29:02;;;;;;;49.77;45.93;;;14.00;89.50;;;;;;4993181;28;20229;-68
2023/07/17 11:31:32;;;;;;;50.73;47.00;;;14.00;89.40;;;;;;4991740;28;20230;-66
2023/07/17 11:34:04;;;;;;;51.70;47.70;;;13.90;89.50;;;;;;4991614;28;20213;-66
2023/07/17 11:36:43;;;;;;;50.97;46.97;;;13.90;89.60;;;;;;4992730;28;20233;-67
2023/07/17 11:39:20;;;;;;;50.23;46.30;;;13.80;89.70;;;;;;4984562;28;20194;-66
2023/07/17 11:41:49;;;;;;;51.37;47.60;;;13.70;89.90;;;;;;4992751;28;20395;-66
2023/07/17 11:44:27;;;;;;;53.60;49.37;;;13.80;90.00;;;;;;4991230;28;20189;-68
2023/07/17 11:47:04;;;;;;;53.10;48.80;;;13.70;89.90;;;;;;4994652;28;20556;-70
2023/07/17 11:49:33;;;;;;;53.77;49.53;;;13.70;90.20;;;;;;4999172;28;20648;-67
2023/07/17 11:52:01;;;;;;;58.57;54.17;;;13.70;90.10;;;;;;4999733;28;20186;-68
2023/07/17 11:54:43;;;;;;;59.47;54.53;;;13.70;90.30;;;;;;4991179;28;20222;-72
2023/07/17 11:57:11;;;;;;;56.70;52.63;;;13.70;90.30;;;;;;4991396;28;20189;-65
2023/07/17 11:59:38;;;;;;;61.37;56.83;;;13.60;90.40;;;;;;4986810;28;20182;-66
2023/07/17 12:02:06;;;;;;;63.43;58.90;;;13.60;90.40;;;;;;4989115;28;20557;-65
2023/07/17 12:04:39;;;;;;;66.50;61.80;;;13.50;90.20;;;;;;4992979;28;20636;-65
2023/07/17 12:07:17;;;;;;;67.93;63.00;;;13.50;90.40;;;;;;4992032;28;20590;-67
2023/07/17 12:09:45;;;;;;;70.20;64.47;;;13.50;90.60;;;;;;4991748;28;20181;-67
2023/07/17 12:12:12;;;;;;;68.13;62.43;;;13.40;90.60;;;;;;4992881;28;20178;-65
2023/07/17 12:14:40;;;;;;;69.80;65.47;;;13.50;90.70;;;;;;4991060;28;20220;-65
2023/07/17 12:17:08;;;;;;;72.23;67.10;;;13.50;90.60;;;;;;4974997;28;20204;-66
2023/07/17 12:19:35;;;;;;;74.37;69.60;;;13.40;90.70;;;;;;4991840;28;20276;-66
2023/07/17 12:22:03;;;;;;;74.40;69.33;;;13.40;90.60;;;;;;4991293;28;20257;-66
2023/07/17 12:24:30;;;;;;;76.23;70.33;;;13.30;90.50;;;;;;4981569;28;20221;-64
2023/07/17 12:26:57;;;;;;;77.77;71.87;;;13.30;90.60;;;;;;4989576;28;20170;-66
2023/07/17 12:29:25;;;;;;;81.13;75.53;;;13.30;90.70;;;;;;4992570;28;20212;-65
2023/07/17 12:31:52;;;;;;;86.87;81.47;;;13.30;90.80;;;;;;4991687;28;20833;-65
2023/07/17 12:34:20;;;;;;;77.57;72.43;;;13.30;90.90;;;;;;4990234;28;20221;-71
2023/07/17 12:36:48;;;;;;;85.83;79.70;;;13.30;90.90;;;;;;4989062;28;20178;-68
2023/07/17 12:39:16;;;;;;;91.20;85.57;;;13.30;91.00;;;;;;4992110;28;20274;-67